Trinidad, Bolivia
Current Conditions -  °F | °C
As of 6:00 PM on Wednesday 22 Oct 2014 (Local Time) from SLCB Reporting Station
Broken Clouds Broken Clouds  
Wind Chill: 73°   Ceiling: 20000
Heat Index: 73°   Visibility: 6mi
Dew Point: 46°   Wind: 5mph
Humidity: 38%   Direction: 190°S
Pressure: 30.21"   Gusts: NA
Location:  14.84°S, 64.91°W
Report Text: SLCB 222200Z 19004KT 9999 FEW027 FEW030CB BKN200 23/08 Q1023
Loading
Personal Weather Stations






























Interactive Weather Map
Tropical Storm Tracking
New forecast layout! Learn more

10-Day Weather Forecast

Advertisements
Track Severe Weather on mobile